Time;durP1;ratioP1;P1;durP2;ratioP2;P2;SDS_P1;SDS_P2;PMS_P1;PMS_P2;Temp;Humidity;BMP_temperature;BMP_pressure;BME280_temperature;BME280_humidity;BME280_pressure;Samples;Min_cycle;Max_cycle;Signal;HPM_P1;HPM_P2
2021/12/28 00:01:42;;;;;;;53.25;27.98;;;4.80;99.90;;;;;;5063452;28;20021;-80
2021/12/28 00:04:21;;;;;;;47.35;23.45;;;4.70;99.90;;;;;;5022069;28;20227;-81
2021/12/28 00:07:07;;;;;;;36.47;18.60;;;4.40;99.90;;;;;;5005068;28;20030;-79
2021/12/28 00:09:35;;;;;;;32.70;18.73;;;4.70;99.90;;;;;;5018150;28;20045;-81
2021/12/28 00:12:20;;;;;;;35.40;19.85;;;4.20;99.90;;;;;;5019180;28;20042;-80
2021/12/28 00:15:04;;;;;;;34.97;19.20;;;4.10;99.90;;;;;;5018107;28;20052;-82
2021/12/28 00:20:23;;;;;;;37.13;20.33;;;4.20;99.90;;;;;;5015447;28;20069;-80
2021/12/28 00:22:51;;;;;;;34.42;19.42;;;2.40;99.90;;;;;;5027914;28;20033;-80
2021/12/28 00:25:37;;;;;;;29.83;17.85;;;4.00;99.90;;;;;;5027341;28;20030;-81
2021/12/28 00:28:04;;;;;;;30.95;17.50;;;2.90;99.90;;;;;;5013580;28;20029;-80
2021/12/28 00:30:30;;;;;;;28.15;17.38;;;4.10;99.90;;;;;;5017672;28;20029;-80
2021/12/28 00:32:56;;;;;;;27.30;16.55;;;3.90;99.90;;;;;;5019067;28;20026;-81
2021/12/28 00:35:38;;;;;;;25.20;15.50;;;3.80;99.90;;;;;;5018400;28;20065;-79
2021/12/28 00:38:26;;;;;;;30.40;16.77;;;3.90;99.90;;;;;;5016266;28;20018;-82
2021/12/28 00:40:58;;;;;;;31.60;17.63;;;3.90;99.90;;;;;;5005646;28;20073;-80
2021/12/28 00:43:42;;;;;;;43.30;22.17;;;3.80;99.90;;;;;;5022473;28;20130;-81
2021/12/28 00:46:16;;;;;;;44.38;23.38;;;3.90;99.90;;;;;;5007942;28;20037;-79
2021/12/28 00:48:45;;;;;;;49.17;24.42;;;3.90;99.90;;;;;;5004941;28;20102;-80
2021/12/28 00:51:18;;;;;;;47.35;24.13;;;3.90;99.90;;;;;;5051369;28;20063;-80
2021/12/28 00:53:44;;;;;;;50.53;24.75;;;4.00;99.90;;;;;;5050293;28;20029;-80
2021/12/28 00:56:47;;;;;;;56.00;26.83;;;4.30;99.90;;;;;;5065491;28;20352;-82
2021/12/28 00:59:38;;;;;;;68.93;32.40;;;4.30;99.90;;;;;;5010644;28;20267;-83
2021/12/28 01:02:07;;;;;;;62.83;28.85;;;4.60;99.90;;;;;;5042126;28;20103;-80
2021/12/28 01:04:40;;;;;;;56.65;27.00;;;4.00;99.90;;;;;;5020827;28;20038;-80
2021/12/28 01:07:13;;;;;;;56.15;25.98;;;5.20;99.90;;;;;;5066213;28;20229;-79
2021/12/28 01:09:55;;;;;;;53.40;25.20;;;4.70;99.90;;;;;;5071998;28;20013;-83
2021/12/28 01:12:24;;;;;;;49.05;25.38;;;4.30;99.90;;;;;;5057321;28;20063;-80
2021/12/28 01:15:15;;;;;;;49.67;23.95;;;4.90;99.90;;;;;;5044996;28;20111;-81
2021/12/28 01:17:42;;;;;;;47.38;22.98;;;4.40;99.90;;;;;;5021927;28;20025;-80
2021/12/28 01:20:17;;;;;;;38.63;20.80;;;4.60;99.90;;;;;;5063267;28;20021;-82
2021/12/28 01:23:03;;;;;;;36.75;19.63;;;4.20;99.90;;;;;;5062300;28;20040;-82
2021/12/28 01:25:32;;;;;;;33.27;19.47;;;4.30;99.90;;;;;;5057394;28;20028;-79
2021/12/28 01:27:59;;;;;;;38.95;20.55;;;4.70;99.90;;;;;;5043460;28;20036;-81
2021/12/28 01:30:33;;;;;;;41.25;20.75;;;4.20;99.90;;;;;;5059791;28;20048;-80
2021/12/28 01:33:40;;;;;;;42.72;22.35;;;4.20;99.90;;;;;;5062111;28;20024;-80
2021/12/28 01:36:06;;;;;;;30.50;16.75;;;4.40;99.90;;;;;;5069185;28;20016;-82
2021/12/28 01:38:32;;;;;;;26.73;15.73;;;4.70;99.90;;;;;;5071825;28;20033;-80
2021/12/28 01:41:10;;;;;;;22.33;14.15;;;4.60;99.90;;;;;;5053046;28;20039;-82
2021/12/28 01:43:48;;;;;;;21.25;13.27;;;4.20;99.90;;;;;;5051793;28;20252;-82
2021/12/28 01:46:14;;;;;;;21.13;12.73;;;4.50;99.90;;;;;;5042942;28;20056;-82
2021/12/28 01:48:43;;;;;;;24.92;14.60;;;5.00;99.90;;;;;;5062284;28;20037;-80
2021/12/28 01:51:18;;;;;;;25.60;14.60;;;4.30;99.90;;;;;;5045118;28;20029;-80
2021/12/28 01:53:51;;;;;;;25.42;14.32;;;4.50;99.90;;;;;;5061122;28;20116;-80
2021/12/28 01:56:22;;;;;;;26.23;14.07;;;4.20;99.90;;;;;;5040824;28;20025;-80
2021/12/28 01:58:49;;;;;;;22.73;13.77;;;4.00;99.90;;;;;;5059212;28;20035;-81
2021/12/28 02:01:15;;;;;;;21.17;12.80;;;3.40;99.90;;;;;;5043659;28;20028;-81
2021/12/28 02:03:54;;;;;;;21.15;12.82;;;3.80;99.90;;;;;;5047774;28;20101;-80
2021/12/28 02:06:24;;;;;;;23.38;13.93;;;3.80;99.90;;;;;;5020420;28;20056;-80
2021/12/28 02:08:54;;;;;;;26.55;14.48;;;3.80;99.90;;;;;;5068617;28;20049;-79
2021/12/28 02:11:25;;;;;;;35.50;17.98;;;4.20;99.90;;;;;;5069269;28;20025;-81
2021/12/28 02:13:51;;;;;;;42.72;19.80;;;4.30;99.90;;;;;;5065750;28;20024;-80
2021/12/28 02:16:26;;;;;;;46.90;21.15;;;3.90;99.90;;;;;;5053610;28;20029;-81
2021/12/28 02:18:52;;;;;;;33.07;15.63;;;4.20;99.90;;;;;;5071695;28;20112;-80
2021/12/28 02:21:17;;;;;;;42.03;20.45;;;4.00;99.90;;;;;;5047080;28;20053;-80
2021/12/28 02:24:10;;;;;;;35.58;18.90;;;4.00;99.90;;;;;;5044063;28;20407;-80
2021/12/28 02:26:36;;;;;;;40.80;21.10;;;4.30;99.90;;;;;;5045072;28;20025;-81
2021/12/28 02:29:05;;;;;;;38.88;19.35;;;4.10;99.90;;;;;;5063974;28;20021;-80
2021/12/28 02:31:34;;;;;;;33.10;18.05;;;4.10;99.90;;;;;;5054434;28;20080;-80
2021/12/28 02:34:06;;;;;;;22.00;12.88;;;4.10;99.90;;;;;;5063515;28;20076;-79
2021/12/28 02:36:33;;;;;;;21.15;11.88;;;4.10;99.90;;;;;;5064359;28;20085;-80
2021/12/28 02:39:04;;;;;;;17.38;10.20;;;4.00;99.90;;;;;;5041584;28;20033;-81
2021/12/28 02:41:32;;;;;;;15.35;9.63;;;4.70;99.90;;;;;;5064569;28;20037;-82
2021/12/28 02:44:00;;;;;;;15.23;9.20;;;4.00;99.90;;;;;;5057831;28;20021;-81
2021/12/28 02:46:27;;;;;;;14.95;8.77;;;4.00;99.90;;;;;;5045670;28;20021;-80
2021/12/28 02:48:56;;;;;;;12.90;8.18;;;4.00;99.90;;;;;;5027531;28;20037;-80
2021/12/28 02:51:22;;;;;;;15.65;9.15;;;3.90;99.90;;;;;;5045371;28;20085;-80
2021/12/28 02:53:50;;;;;;;14.05;8.20;;;3.90;99.90;;;;;;5048527;28;20040;-81
2021/12/28 02:56:18;;;;;;;15.57;8.32;;;3.80;99.90;;;;;;5051552;28;20017;-80
2021/12/28 02:58:47;;;;;;;18.55;10.25;;;3.80;99.90;;;;;;5061958;28;20009;-80
2021/12/28 03:01:27;;;;;;;33.10;16.02;;;3.70;99.90;;;;;;5066432;28;20076;-80
2021/12/28 03:04:03;;;;;;;34.08;17.08;;;4.10;99.90;;;;;;5032873;28;20048;-80
2021/12/28 03:06:31;;;;;;;45.95;21.42;;;3.90;99.90;;;;;;5041926;28;20033;-80
2021/12/28 03:09:00;;;;;;;41.45;20.67;;;3.90;99.90;;;;;;5020835;28;20491;-80
2021/12/28 03:11:33;;;;;;;45.42;21.17;;;3.90;99.90;;;;;;5054772;28;20114;-82
2021/12/28 03:14:05;;;;;;;54.10;25.30;;;4.60;99.90;;;;;;5066774;28;20206;-82
2021/12/28 03:16:38;;;;;;;50.42;24.77;;;3.90;99.90;;;;;;5051894;28;20032;-81
2021/12/28 03:19:18;;;;;;;60.15;28.70;;;3.90;99.90;;;;;;5065554;28;20029;-82
2021/12/28 03:21:46;;;;;;;60.85;29.05;;;3.90;99.90;;;;;;5059161;28;20275;-81
2021/12/28 03:24:13;;;;;;;67.55;30.83;;;4.00;99.90;;;;;;5056079;28;20258;-81
2021/12/28 03:26:39;;;;;;;62.88;29.23;;;4.00;99.90;;;;;;5069449;28;20096;-80
2021/12/28 03:29:06;;;;;;;59.60;28.65;;;4.00;99.90;;;;;;5061870;28;20028;-79
2021/12/28 03:31:32;;;;;;;59.03;27.75;;;4.10;99.90;;;;;;5043855;28;20025;-81
2021/12/28 03:34:04;;;;;;;56.40;27.90;;;4.10;99.90;;;;;;5051540;28;20017;-80
2021/12/28 03:36:33;;;;;;;66.03;29.48;;;4.10;99.90;;;;;;5062592;28;20029;-80
2021/12/28 03:39:00;;;;;;;58.92;27.45;;;4.20;99.90;;;;;;5040834;28;20028;-81
2021/12/28 03:41:31;;;;;;;55.92;27.30;;;4.20;99.90;;;;;;5042086;28;20202;-81
2021/12/28 03:44:02;;;;;;;57.67;27.85;;;4.20;99.90;;;;;;5037032;28;20072;-81
2021/12/28 03:47:03;;;;;;;57.83;26.95;;;4.20;99.90;;;;;;5056574;28;20422;-81
2021/12/28 03:49:38;;;;;;;62.55;28.00;;;4.30;99.90;;;;;;4997150;28;20062;-81
2021/12/28 03:52:07;;;;;;;57.92;29.23;;;4.30;99.90;;;;;;5002241;28;20070;-81
2021/12/28 03:54:38;;;;;;;56.30;27.35;;;2.80;99.90;;;;;;4993585;28;20114;-80
2021/12/28 03:57:08;;;;;;;43.05;22.08;;;4.30;99.90;;;;;;5008377;28;20050;-80
2021/12/28 03:59:38;;;;;;;31.65;17.13;;;4.30;99.90;;;;;;5001049;28;20026;-80
2021/12/28 04:02:06;;;;;;;26.55;13.95;;;4.30;99.90;;;;;;4990080;28;20031;-80
2021/12/28 04:04:33;;;;;;;26.10;14.20;;;4.20;99.90;;;;;;5012637;28;20039;-80
2021/12/28 04:06:59;;;;;;;20.58;12.38;;;4.20;99.90;;;;;;4993833;28;20027;-80
2021/12/28 04:12:18;;;;;;;15.80;8.85;;;4.10;99.90;;;;;;5009864;28;20030;-80
2021/12/28 04:14:57;;;;;;;12.38;7.68;;;4.10;99.90;;;;;;5053609;28;20101;-81
2021/12/28 04:17:25;;;;;;;12.13;7.50;;;4.10;99.90;;;;;;5068391;28;20036;-81
2021/12/28 04:19:54;;;;;;;11.05;7.30;;;4.00;99.90;;;;;;5072691;28;20002;-82
2021/12/28 04:22:20;;;;;;;14.15;7.95;;;3.90;99.90;;;;;;5071718;28;20060;-80
2021/12/28 04:24:47;;;;;;;15.90;8.70;;;4.00;99.90;;;;;;5055062;28;20056;-81
2021/12/28 04:27:17;;;;;;;19.00;9.88;;;4.00;99.90;;;;;;5073296;28;20045;-79
2021/12/28 04:29:43;;;;;;;22.27;11.65;;;4.00;99.90;;;;;;5069697;28;20031;-80
2021/12/28 04:32:09;;;;;;;30.48;14.43;;;4.00;99.90;;;;;;5041864;28;20077;-80
2021/12/28 04:34:35;;;;;;;31.45;15.85;;;4.00;99.90;;;;;;5061589;28;20029;-80
2021/12/28 04:37:07;;;;;;;32.40;16.25;;;4.00;99.90;;;;;;5044965;28;20032;-82
2021/12/28 04:39:37;;;;;;;37.33;17.70;;;4.00;99.90;;;;;;5056333;28;20041;-81
2021/12/28 04:42:09;;;;;;;36.83;18.25;;;4.00;99.90;;;;;;5043588;28;20036;-80
2021/12/28 04:44:35;;;;;;;39.58;18.90;;;4.40;99.90;;;;;;5059713;28;20054;-80
2021/12/28 04:47:05;;;;;;;42.58;21.70;;;3.90;99.90;;;;;;5065749;28;20021;-80
2021/12/28 04:49:31;;;;;;;49.03;22.83;;;1.20;99.90;;;;;;5054804;28;20075;-80
2021/12/28 04:52:04;;;;;;;35.85;17.70;;;4.00;99.90;;;;;;5065042;28;20378;-80
2021/12/28 04:54:30;;;;;;;27.85;13.13;;;6.80;99.90;;;;;;5040900;28;20033;-80
2021/12/28 04:56:59;;;;;;;19.55;10.48;;;4.00;99.90;;;;;;5049141;28;20638;-83
2021/12/28 04:59:27;;;;;;;16.58;9.40;;;4.00;99.90;;;;;;5066146;28;20028;-80
2021/12/28 05:01:56;;;;;;;19.73;9.55;;;3.90;99.90;;;;;;5045241;28;20025;-80
2021/12/28 05:04:22;;;;;;;18.10;10.07;;;4.40;99.90;;;;;;5069124;28;20044;-80
2021/12/28 05:06:54;;;;;;;17.20;8.93;;;3.90;99.90;;;;;;5053051;28;20024;-80
2021/12/28 05:09:21;;;;;;;17.40;9.77;;;3.90;99.90;;;;;;5060309;28;20368;-80
2021/12/28 05:12:07;;;;;;;19.58;10.50;;;4.50;99.90;;;;;;5069375;28;20044;-82
2021/12/28 05:14:41;;;;;;;15.98;9.80;;;4.10;99.90;;;;;;5040216;28;20025;-80
2021/12/28 05:17:07;;;;;;;17.27;9.60;;;6.40;99.90;;;;;;5040322;28;20387;-80
2021/12/28 05:19:34;;;;;;;20.20;11.30;;;3.80;99.90;;;;;;5061003;28;20072;-80
2021/12/28 05:22:04;;;;;;;30.30;14.07;;;3.90;99.90;;;;;;5058227;28;20028;-80
2021/12/28 05:24:32;;;;;;;38.53;19.77;;;4.00;99.90;;;;;;5058361;28;20246;-80
2021/12/28 05:26:59;;;;;;;43.72;19.17;;;6.90;99.90;;;;;;5058589;28;20085;-80
2021/12/28 05:29:28;;;;;;;44.03;19.98;;;3.80;99.90;;;;;;5043964;28;20029;-80
2021/12/28 05:32:00;;;;;;;43.35;19.85;;;3.70;99.90;;;;;;5069079;28;20016;-80
2021/12/28 05:34:29;;;;;;;48.75;21.15;;;5.50;99.90;;;;;;5061246;28;20053;-82
2021/12/28 05:36:56;;;;;;;40.22;18.67;;;3.70;99.90;;;;;;5043687;28;20017;-80
2021/12/28 05:39:22;;;;;;;41.90;19.73;;;3.70;99.90;;;;;;5066490;28;20126;-80
2021/12/28 05:42:15;;;;;;;43.58;21.48;;;3.70;99.90;;;;;;5052499;28;20026;-80
2021/12/28 05:44:59;;;;;;;48.85;22.70;;;3.70;99.90;;;;;;5044128;28;20542;-80
2021/12/28 05:47:27;;;;;;;45.50;22.40;;;3.70;99.90;;;;;;5069789;28;20021;-80
2021/12/28 05:49:55;;;;;;;43.05;19.08;;;4.10;99.90;;;;;;5064763;28;20045;-80
2021/12/28 05:52:28;;;;;;;33.05;18.08;;;4.30;99.90;;;;;;5040420;28;20017;-80
2021/12/28 05:54:55;;;;;;;24.27;13.40;;;4.30;99.90;;;;;;5058203;28;20056;-82
2021/12/28 05:57:21;;;;;;;28.92;15.77;;;3.60;99.90;;;;;;5060512;28;20306;-78
2021/12/28 05:59:47;;;;;;;23.73;13.73;;;3.40;99.90;;;;;;5041667;28;20036;-79
2021/12/28 06:02:13;;;;;;;29.48;17.80;;;4.00;99.90;;;;;;5042602;28;20037;-80
2021/12/28 06:04:41;;;;;;;32.55;19.33;;;3.40;99.90;;;;;;5057257;28;20028;-80
2021/12/28 06:07:06;;;;;;;27.90;15.48;;;3.40;99.90;;;;;;5046147;28;20021;-79
2021/12/28 06:09:38;;;;;;;29.08;15.25;;;3.60;99.90;;;;;;5063531;28;20040;-80
2021/12/28 06:12:06;;;;;;;31.92;16.23;;;3.60;99.90;;;;;;5067741;28;20048;-80
2021/12/28 06:14:33;;;;;;;30.48;15.57;;;3.80;99.90;;;;;;5070290;28;20005;-78
2021/12/28 06:17:18;;;;;;;26.65;14.07;;;3.40;99.90;;;;;;5048543;28;20116;-79
2021/12/28 06:19:55;;;;;;;29.15;14.48;;;3.50;99.90;;;;;;5018756;28;20488;-82
2021/12/28 06:22:32;;;;;;;28.00;14.05;;;3.60;99.90;;;;;;5066932;28;20075;-81
2021/12/28 06:25:03;;;;;;;26.40;13.43;;;3.20;99.90;;;;;;5063392;28;20081;-79
2021/12/28 06:27:29;;;;;;;29.30;14.70;;;3.40;99.90;;;;;;5042569;28;20025;-79
2021/12/28 06:29:55;;;;;;;27.00;13.50;;;3.40;99.90;;;;;;5041037;28;20092;-79
2021/12/28 06:32:20;;;;;;;28.83;14.40;;;3.70;99.90;;;;;;5062220;28;20022;-79
2021/12/28 06:34:50;;;;;;;32.65;15.57;;;3.50;99.90;;;;;;5060425;28;20321;-80
2021/12/28 06:37:17;;;;;;;28.50;15.35;;;3.70;99.90;;;;;;5061791;28;20033;-79
2021/12/28 06:39:42;;;;;;;29.80;16.85;;;3.50;99.90;;;;;;5043356;28;20029;-80
2021/12/28 06:42:08;;;;;;;30.50;15.60;;;2.10;99.90;;;;;;5044307;28;20021;-80
2021/12/28 06:44:52;;;;;;;32.00;16.85;;;4.00;99.90;;;;;;5064433;28;20036;-80
2021/12/28 06:47:28;;;;;;;35.90;18.67;;;3.80;99.90;;;;;;5067438;28;20029;-81
2021/12/28 06:49:53;;;;;;;40.38;19.58;;;3.80;99.90;;;;;;5067906;28;20407;-80
2021/12/28 06:52:30;;;;;;;35.80;18.15;;;3.60;99.90;;;;;;5066458;28;20033;-81
2021/12/28 06:55:02;;;;;;;24.85;14.25;;;3.70;99.90;;;;;;5056480;28;20044;-79
2021/12/28 06:57:32;;;;;;;26.30;13.20;;;3.70;99.90;;;;;;5070552;28;20021;-79
2021/12/28 07:00:09;;;;;;;25.42;14.05;;;3.60;99.90;;;;;;5057036;28;20024;-83
2021/12/28 07:02:41;;;;;;;36.38;18.65;;;4.10;99.90;;;;;;5073402;28;20029;-79
2021/12/28 07:05:28;;;;;;;48.42;23.48;;;3.70;99.90;;;;;;5057242;28;20040;-80
2021/12/28 07:08:01;;;;;;;47.08;23.65;;;3.80;99.90;;;;;;5074338;28;20039;-80
2021/12/28 07:10:27;;;;;;;52.28;25.02;;;4.00;99.90;;;;;;5058651;28;20025;-79
2021/12/28 07:12:54;;;;;;;55.28;26.05;;;3.90;99.90;;;;;;5051169;28;20052;-80
2021/12/28 07:15:21;;;;;;;51.53;23.58;;;4.10;99.90;;;;;;5075315;28;20053;-80
2021/12/28 07:17:47;;;;;;;52.28;25.38;;;0.90;99.90;;;;;;5075354;28;20039;-80
2021/12/28 07:20:48;;;;;;;62.50;27.58;;;4.20;99.90;;;;;;5072271;28;20272;-79
2021/12/28 07:23:15;;;;;;;71.68;31.42;;;4.10;99.90;;;;;;5015069;28;20057;-80
2021/12/28 07:25:54;;;;;;;68.25;33.35;;;4.20;99.90;;;;;;5015383;28;20038;-81
2021/12/28 07:28:23;;;;;;;74.07;35.28;;;5.00;99.90;;;;;;5009049;28;20035;-79
2021/12/28 07:30:53;;;;;;;78.35;35.70;;;4.30;99.90;;;;;;5004756;28;20029;-79
2021/12/28 07:33:27;;;;;;;80.35;36.90;;;1.80;99.90;;;;;;4994100;28;20061;-79
2021/12/28 07:35:59;;;;;;;77.90;35.03;;;4.40;99.90;;;;;;4992882;28;20042;-80
2021/12/28 07:38:25;;;;;;;78.25;33.00;;;4.40;99.90;;;;;;4999278;28;20038;-80
2021/12/28 07:40:51;;;;;;;67.22;33.38;;;4.60;99.90;;;;;;5002925;28;20049;-79
2021/12/28 07:43:17;;;;;;;53.95;25.60;;;4.90;99.90;;;;;;5001359;28;20038;-79
2021/12/28 07:45:43;;;;;;;46.83;23.63;;;5.00;99.90;;;;;;4981043;28;20057;-79
2021/12/28 07:48:31;;;;;;;45.72;23.33;;;4.60;99.90;;;;;;4981833;28;20037;-80
2021/12/28 07:50:57;;;;;;;51.13;24.98;;;4.70;99.90;;;;;;4961398;28;20042;-80
2021/12/28 07:53:26;;;;;;;53.05;25.95;;;4.70;99.90;;;;;;4970434;28;20034;-79
2021/12/28 07:55:52;;;;;;;53.92;26.77;;;5.00;99.90;;;;;;4963297;28;20023;-79
2021/12/28 07:58:20;;;;;;;72.68;32.05;;;4.80;99.90;;;;;;4971219;28;20059;-80
2021/12/28 08:00:47;;;;;;;72.70;33.85;;;4.90;99.90;;;;;;4966388;28;20109;-80
2021/12/28 08:03:19;;;;;;;81.22;36.72;;;4.90;99.90;;;;;;4976879;28;20038;-80
2021/12/28 08:05:46;;;;;;;88.82;39.65;;;5.20;99.90;;;;;;4971862;28;20031;-80
2021/12/28 08:08:15;;;;;;;90.88;40.83;;;3.50;99.90;;;;;;4971384;28;20031;-83
2021/12/28 08:10:49;;;;;;;104.13;46.45;;;5.50;99.90;;;;;;4971677;28;20034;-82
2021/12/28 08:13:16;;;;;;;100.97;47.47;;;5.40;99.90;;;;;;4967386;28;20110;-80
2021/12/28 08:15:57;;;;;;;97.82;47.70;;;3.70;99.90;;;;;;4971721;28;20481;-80
2021/12/28 08:18:48;;;;;;;91.50;42.00;;;2.80;99.30;;;;;;4972811;28;20739;-83
2021/12/28 08:21:23;;;;;;;93.32;40.55;;;4.50;99.90;;;;;;4986695;28;20036;-83
2021/12/28 08:23:53;;;;;;;86.57;40.00;;;5.90;99.90;;;;;;5010664;28;20413;-80
2021/12/28 08:26:27;;;;;;;85.13;39.58;;;5.50;99.90;;;;;;5010798;28;20022;-78
2021/12/28 08:28:53;;;;;;;97.15;42.08;;;4.90;99.40;;;;;;5013166;28;20128;-80
2021/12/28 08:31:25;;;;;;;101.93;44.75;;;5.70;99.90;;;;;;5000372;28;20045;-79
2021/12/28 08:34:16;;;;;;;110.18;44.05;;;5.60;99.90;;;;;;4997708;28;20086;-81
2021/12/28 08:36:46;;;;;;;108.75;44.83;;;6.30;99.90;;;;;;5022282;28;20057;-80
2021/12/28 08:39:15;;;;;;;133.10;52.22;;;6.10;99.90;;;;;;5007413;28;20030;-80
2021/12/28 08:41:41;;;;;;;145.63;55.83;;;6.10;99.90;;;;;;5056299;28;20253;-79
2021/12/28 08:44:08;;;;;;;131.32;52.90;;;5.70;99.90;;;;;;5064786;28;20025;-81
2021/12/28 08:46:35;;;;;;;134.95;52.30;;;5.70;99.90;;;;;;5042876;28;20025;-78
2021/12/28 08:49:01;;;;;;;142.52;54.70;;;5.70;99.90;;;;;;5052748;28;20036;-81
2021/12/28 08:51:38;;;;;;;149.63;56.58;;;5.90;99.90;;;;;;5071530;28;20055;-82
2021/12/28 08:54:08;;;;;;;158.30;57.97;;;3.20;99.90;;;;;;5070575;28;20024;-80
2021/12/28 08:56:34;;;;;;;171.60;60.13;;;6.20;99.90;;;;;;5061958;28;20017;-79
2021/12/28 08:59:03;;;;;;;175.32;61.03;;;4.90;99.90;;;;;;5062388;28;20016;-80
2021/12/28 09:01:48;;;;;;;172.48;59.05;;;5.60;99.90;;;;;;5061594;28;20024;-80
2021/12/28 09:04:18;;;;;;;180.13;58.97;;;6.20;99.90;;;;;;5066419;28;20081;-79
2021/12/28 09:06:48;;;;;;;174.27;58.95;;;5.70;99.90;;;;;;5065252;28;20021;-79
2021/12/28 09:09:14;;;;;;;182.00;58.95;;;5.70;99.90;;;;;;5065403;28;20051;-81
2021/12/28 09:11:42;;;;;;;159.68;56.42;;;5.80;99.90;;;;;;5048348;28;20021;-79
2021/12/28 09:14:13;;;;;;;172.00;61.30;;;5.80;99.90;;;;;;5061400;28;20028;-80
2021/12/28 09:16:40;;;;;;;183.80;61.10;;;5.90;99.90;;;;;;4998424;28;20033;-80
2021/12/28 09:19:09;;;;;;;172.73;59.38;;;5.90;99.90;;;;;;5036535;28;20033;-80
2021/12/28 09:21:38;;;;;;;172.07;60.10;;;6.00;99.90;;;;;;5055902;28;20025;-79
2021/12/28 09:24:05;;;;;;;176.23;62.00;;;6.00;99.90;;;;;;5055289;28;20122;-79
2021/12/28 09:26:31;;;;;;;166.93;57.65;;;5.80;99.90;;;;;;5053048;28;20048;-80
2021/12/28 09:28:57;;;;;;;178.18;60.95;;;5.90;99.90;;;;;;5050601;28;20575;-80
2021/12/28 09:31:27;;;;;;;175.73;60.97;;;5.90;99.90;;;;;;5039342;28;20106;-79
2021/12/28 09:33:53;;;;;;;172.00;59.95;;;6.00;99.90;;;;;;5033598;28;20033;-80
2021/12/28 09:36:19;;;;;;;184.10;61.55;;;6.00;99.90;;;;;;5050398;28;20017;-79
2021/12/28 09:38:46;;;;;;;205.82;66.95;;;6.00;99.90;;;;;;5052136;28;20100;-79
2021/12/28 09:41:33;;;;;;;198.52;67.72;;;6.00;99.90;;;;;;5055787;28;20037;-79
2021/12/28 09:44:00;;;;;;;200.18;66.03;;;6.00;99.90;;;;;;5050652;28;20048;-81
2021/12/28 09:46:27;;;;;;;196.23;66.32;;;5.90;99.90;;;;;;5070174;28;20056;-81
2021/12/28 09:49:04;;;;;;;194.07;66.55;;;5.90;99.90;;;;;;5053800;28;20502;-85
2021/12/28 09:51:30;;;;;;;195.48;66.43;;;5.80;99.90;;;;;;5043503;28;20455;-81
2021/12/28 09:53:57;;;;;;;185.68;66.28;;;5.90;99.90;;;;;;5030283;28;20045;-81
2021/12/28 09:56:24;;;;;;;179.65;62.92;;;5.90;99.90;;;;;;5048382;28;20170;-82
2021/12/28 09:58:50;;;;;;;164.10;59.45;;;6.40;99.90;;;;;;5049249;28;20064;-80
2021/12/28 10:01:17;;;;;;;170.88;59.33;;;6.00;99.90;;;;;;5035506;28;20085;-80
2021/12/28 10:03:47;;;;;;;153.45;53.15;;;3.70;99.90;;;;;;5039624;28;20033;-81
2021/12/28 10:06:19;;;;;;;160.95;58.00;;;7.00;99.90;;;;;;5056220;28;20049;-85
2021/12/28 10:08:46;;;;;;;162.90;57.15;;;6.40;99.90;;;;;;5042481;28;20026;-84
2021/12/28 10:11:13;;;;;;;167.55;58.88;;;6.90;99.90;;;;;;5039883;28;20025;-80
2021/12/28 10:13:45;;;;;;;166.95;61.50;;;6.60;99.90;;;;;;5036194;28;20025;-79
2021/12/28 10:16:11;;;;;;;189.80;67.70;;;6.30;99.80;;;;;;5065658;28;20009;-80
2021/12/28 10:18:37;;;;;;;189.23;69.30;;;6.30;99.90;;;;;;5058511;28;20509;-80
2021/12/28 10:21:10;;;;;;;179.05;63.42;;;7.10;99.90;;;;;;5062753;28;20071;-80
2021/12/28 10:23:37;;;;;;;173.05;60.75;;;6.80;99.90;;;;;;5055455;28;20043;-82
2021/12/28 10:26:06;;;;;;;167.98;64.90;;;6.80;99.80;;;;;;5049449;28;20018;-80
2021/12/28 10:28:34;;;;;;;186.30;67.10;;;7.40;99.90;;;;;;5053082;28;20009;-81
2021/12/28 10:31:05;;;;;;;179.63;63.83;;;7.00;99.00;;;;;;5046995;28;20025;-79
2021/12/28 10:33:38;;;;;;;187.10;68.78;;;7.50;98.90;;;;;;5047028;28;20081;-79
2021/12/28 10:36:09;;;;;;;173.95;63.38;;;7.60;98.40;;;;;;5048880;28;20006;-79
2021/12/28 10:38:51;;;;;;;186.52;68.60;;;7.50;98.20;;;;;;5065538;28;20718;-79
2021/12/28 10:41:21;;;;;;;180.63;66.88;;;7.70;97.20;;;;;;5052640;28;20021;-79
2021/12/28 10:43:54;;;;;;;188.70;69.43;;;8.10;97.10;;;;;;5077934;28;20021;-79
2021/12/28 10:46:25;;;;;;;185.95;68.20;;;8.30;96.20;;;;;;5054654;28;20033;-78
2021/12/28 10:48:58;;;;;;;175.55;67.05;;;8.30;95.60;;;;;;5074748;28;20069;-79
2021/12/28 10:51:31;;;;;;;174.57;68.03;;;8.40;95.40;;;;;;5078197;28;20013;-79
2021/12/28 10:54:15;;;;;;;169.90;64.50;;;8.40;95.40;;;;;;5038214;28;20017;-82
2021/12/28 10:56:55;;;;;;;187.32;72.10;;;8.20;95.60;;;;;;5074082;28;20021;-79
2021/12/28 10:59:26;;;;;;;182.77;69.18;;;8.00;96.10;;;;;;5055974;28;20023;-82
2021/12/28 11:01:55;;;;;;;192.02;70.82;;;7.40;96.30;;;;;;5075879;28;20088;-80
2021/12/28 11:07:08;;;;;;;194.45;71.53;;;8.50;97.20;;;;;;5021132;28;20041;-79
2021/12/28 11:09:34;;;;;;;202.80;73.68;;;7.50;97.80;;;;;;5051503;28;20084;-79
2021/12/28 11:12:00;;;;;;;193.27;70.82;;;7.40;97.70;;;;;;5066681;28;20017;-78
2021/12/28 11:14:30;;;;;;;190.68;72.13;;;7.10;97.90;;;;;;5067509;28;20013;-82
2021/12/28 11:17:02;;;;;;;207.30;73.80;;;7.50;97.90;;;;;;5066824;28;20029;-82
2021/12/28 11:19:34;;;;;;;183.18;68.00;;;7.40;98.00;;;;;;5045549;28;20040;-79
2021/12/28 11:22:11;;;;;;;205.52;71.90;;;7.50;97.90;;;;;;5065152;28;20021;-79
2021/12/28 11:24:42;;;;;;;186.27;67.60;;;7.30;97.70;;;;;;5061661;28;20194;-77
2021/12/28 11:27:24;;;;;;;191.88;70.47;;;7.30;98.00;;;;;;5045317;28;20017;-79
2021/12/28 11:29:51;;;;;;;183.40;68.25;;;7.30;97.80;;;;;;5052654;28;20018;-79
2021/12/28 11:32:22;;;;;;;176.48;64.85;;;7.30;97.60;;;;;;5067472;28;20033;-79
2021/12/28 11:34:53;;;;;;;185.25;69.57;;;7.20;97.70;;;;;;5061500;28;20045;-79
2021/12/28 11:37:26;;;;;;;204.50;72.38;;;7.10;98.00;;;;;;5064299;28;20013;-79
2021/12/28 11:40:08;;;;;;;201.02;70.18;;;7.10;98.20;;;;;;5063713;28;20116;-81
2021/12/28 11:42:34;;;;;;;205.55;73.80;;;7.00;98.30;;;;;;5056513;28;20202;-80
2021/12/28 11:45:04;;;;;;;203.15;73.35;;;7.10;98.70;;;;;;5026569;28;20033;-79
2021/12/28 11:47:31;;;;;;;206.02;73.22;;;7.10;98.50;;;;;;5050341;28;20033;-79
2021/12/28 11:50:00;;;;;;;190.07;70.32;;;7.10;98.10;;;;;;5036541;28;20069;-80
2021/12/28 11:52:27;;;;;;;188.20;69.38;;;7.10;98.50;;;;;;5032084;28;20061;-80
2021/12/28 11:54:59;;;;;;;183.90;68.35;;;7.10;98.40;;;;;;5043743;28;20032;-79
2021/12/28 11:57:32;;;;;;;197.32;71.80;;;7.40;98.40;;;;;;5035766;28;20246;-79
2021/12/28 12:00:20;;;;;;;189.82;68.55;;;7.10;98.00;;;;;;5037703;28;20026;-80
2021/12/28 12:03:09;;;;;;;190.00;70.72;;;7.10;98.50;;;;;;5027389;28;20017;-80
2021/12/28 12:05:43;;;;;;;186.82;72.10;;;7.50;98.40;;;;;;5048348;28;20013;-80
2021/12/28 12:08:38;;;;;;;203.23;74.28;;;7.40;98.40;;;;;;5030108;28;20397;-80
2021/12/28 12:11:06;;;;;;;208.50;76.07;;;7.40;98.10;;;;;;5035685;28;20081;-82
2021/12/28 12:13:43;;;;;;;213.52;77.65;;;7.80;99.00;;;;;;5017805;28;20037;-81
2021/12/28 12:16:20;;;;;;;206.25;75.63;;;7.20;98.10;;;;;;5037954;28;20090;-79
2021/12/28 12:18:53;;;;;;;216.38;77.80;;;7.20;98.40;;;;;;5045376;28;20503;-79
2021/12/28 12:21:28;;;;;;;229.43;80.60;;;7.50;99.00;;;;;;5052216;28;20021;-81
2021/12/28 12:23:58;;;;;;;200.45;75.80;;;7.50;98.30;;;;;;5049548;28;20046;-82
2021/12/28 12:26:35;;;;;;;216.35;77.97;;;7.30;98.50;;;;;;5036980;28;20020;-83
2021/12/28 12:29:03;;;;;;;220.65;82.15;;;7.40;98.50;;;;;;5029976;28;20025;-80
2021/12/28 12:31:33;;;;;;;219.40;83.70;;;7.50;98.10;;;;;;5047808;28;20021;-79
2021/12/28 12:34:01;;;;;;;218.52;83.80;;;7.50;98.10;;;;;;5047426;28;20025;-79
2021/12/28 12:36:51;;;;;;;224.73;83.75;;;7.50;98.00;;;;;;5044885;28;20021;-80
2021/12/28 12:39:21;;;;;;;219.93;81.72;;;7.50;98.10;;;;;;5031423;28;20009;-79
2021/12/28 12:41:50;;;;;;;213.50;82.55;;;7.50;97.70;;;;;;5032554;28;20032;-79
2021/12/28 12:44:19;;;;;;;236.88;87.65;;;7.40;98.00;;;;;;5015423;28;20091;-79
2021/12/28 12:46:47;;;;;;;223.15;83.68;;;7.40;98.10;;;;;;5050098;28;20037;-80
2021/12/28 12:49:29;;;;;;;220.68;80.90;;;7.50;98.20;;;;;;5036248;28;20551;-79
2021/12/28 12:52:02;;;;;;;224.10;85.95;;;7.80;98.10;;;;;;5065076;28;20025;-81
2021/12/28 12:54:50;;;;;;;235.60;88.40;;;7.00;98.30;;;;;;5049916;28;20024;-79
2021/12/28 12:57:35;;;;;;;239.05;90.95;;;7.40;98.10;;;;;;5064498;28;20036;-79
2021/12/28 13:00:20;;;;;;;240.15;92.38;;;7.50;98.20;;;;;;5065398;28;20020;-80
2021/12/28 13:02:59;;;;;;;250.63;95.10;;;7.60;98.00;;;;;;5065350;28;20747;-80
2021/12/28 13:06:09;;;;;;;234.40;92.90;;;7.70;97.90;;;;;;5039546;28;20025;-81